• Join FlightAware (Why Join?)
  • Login
  • US Flag 
07:32AM EST


 

Airport Tracker/Info


-or-


 

Live Flight TrackerFlight Track Log ✈ RPA3253 ✈ 27-Jul-2013 ✈ KPWM - KCLT

Flight Track Log - Related Links

Times and Time Zones

All times are in EDT time to prevent confusion due to time zone crossing. See the RPA3253 flight status page for this flight to view local times or setup timezone preferences in your user account.

Time Position Orientation Groundspeed Altitude Reporting Facility
EDT Latitude Longitude Course Direction KTS MPH feet Rate Location/Type
07:07PM 43.6339 -70.4781 216° Southwest 227 261 3,800  Level Boston Center
07:08PM 43.5581 -70.5433 212° Southwest 240 276 7,100 2,580 Climbing Boston Center
07:09PM 43.4961 -70.5825 205° Southwest 270 311 9,100 1,920 Climbing Boston Center
07:10PM 43.4111 -70.6194 198° South 291 335 11,000 1,860 Climbing Boston Center
07:11PM 43.3003 -70.5245 232° Southwest  Level FlightAware Approximate
07:11PM 43.3367 -70.6503 197° South 306 352 12,900  Level Boston Center
07:12PM 43.2232 -70.6268 216° Southwest  Level FlightAware Approximate
07:12PM 43.2436 -70.6872 196° South 311 358 15,000  Level Boston Center
07:13PM 43.1442 -70.7383 201° Southwest 319 367 17,000 1,560 Climbing Boston Center
07:14PM 43.0636 -70.7917 206° Southwest 330 380 18,100 1,200 Climbing Boston Center
07:15PM 42.9811 -70.8536 209° Southwest 336 387 19,400 1,380 Climbing Boston Center
07:16PM 42.8986 -70.9125 208° Southwest 341 392 20,900 1,260 Climbing Boston Center
07:17PM 42.8139 -70.9656 205° Southwest 341 392 22,000 960 Climbing Boston Center
07:18PM 42.7394 -71.0039 201° Southwest 341 392 22,900 1,020 Climbing Boston Center
07:19PM 42.6275 -71.0575 199° South 352 405 24,100 1,020 Climbing Boston Center
07:20PM 42.5344 -71.1072 201° Southwest 359 413 25,000 1,020 Climbing Boston Center
07:21PM 42.4478 -71.1881 215° Southwest 367 422 26,200 1,020 Climbing Boston Center
07:22PM 42.3672 -71.2767 219° Southwest 372 428 27,100 960 Climbing Boston Center
07:23PM 42.2869 -71.3625 218° Southwest 377 434 28,200 1,020 Climbing Boston Center
07:24PM 42.2003 -71.4536 218° Southwest 389 448 29,200 960 Climbing Boston Center
07:25PM 42.1133 -71.5417 217° Southwest 389 448 30,200 720 Climbing Boston Center
07:26PM 42.0328 -71.6183 215° Southwest 394 453 30,900 780 Climbing Boston Center
07:27PM 41.9272 -71.7314 219° Southwest 404 465 32,000 900 Climbing Boston Center
07:28PM 41.8381 -71.8242 218° Southwest 409 471 32,800 840 Climbing Boston Center
07:29PM 41.7489 -71.9142 217° Southwest 409 471 33,800 540 Climbing Boston Center
07:30PM 41.6597 -72.0067 218° Southwest 409 471 34,000 60 Climbing Boston Center
07:31PM 41.5703 -72.0961 217° Southwest 415 478 34,000  Level Boston Center
07:32PM 41.4644 -72.2047 218° Southwest 415 478 34,000  Level Boston Center
07:33PM 41.3644 -72.3044 217° Southwest 415 478 34,000  Level Boston Center
07:34PM 41.2750 -72.3958 218° Southwest 409 471 34,000  Level Boston Center
07:35PM 41.1917 -72.4814 218° Southwest 422 486 34,000  Level Boston Center
07:36PM 41.0956 -72.5833 219° Southwest 417 480 34,000  Level Boston Center
07:37PM 41.0058 -72.6711 216° Southwest 412 474 34,000  Level Boston Center
07:38PM 40.9183 -72.7586 217° Southwest 412 474 34,000  Level Boston Center
07:39PM 40.8325 -72.8461 218° Southwest 412 474 34,000  Level Boston Center
07:40PM 40.7447 -72.9358 218° Southwest 412 474 34,000  Level Boston Center
07:41PM 40.6567 -73.0119 213° Southwest 401 461 34,000  Level Boston Center
07:43PM 40.5300 -73.1464 219° Southwest 391 450 34,000  Level Washington Center
07:44PM 40.4422 -73.2314 216° Southwest 391 450 34,000  Level Washington Center
07:45PM 40.3522 -73.3186 216° Southwest 397 457 34,000  Level Washington Center
07:46PM 40.2642 -73.4031 216° Southwest 403 464 34,000  Level Washington Center
07:47PM 40.1764 -73.4928 218° Southwest 403 464 34,000  Level Washington Center
07:48PM 40.0778 -73.5825 215° Southwest 403 464 34,000  Level Washington Center
07:49PM 39.9875 -73.6661 215° Southwest 398 458 34,000  Level Washington Center
07:50PM 39.8994 -73.7525 217° Southwest 403 464 34,000  Level Washington Center
07:51PM 39.8111 -73.8358 216° Southwest 403 464 34,000  Level Washington Center
07:52PM 39.7228 -73.9217 217° Southwest 403 464 34,000 -300 Level Washington Center
07:53PM 39.6361 -74.0017 215° Southwest 403 464 33,500 -780 Descending Washington Center
07:54PM 39.5478 -74.0897 218° Southwest 403 464 32,500 -780 Descending Washington Center
07:55PM 39.4592 -74.1722 216° Southwest 403 464 32,000 -300 Descending Washington Center
07:56PM 39.3725 -74.2547 216° Southwest 403 464 32,000  Level Washington Center
07:57PM 39.2839 -74.3367 216° Southwest 403 464 32,000  Level Washington Center
07:58PM 39.1950 -74.4214 216° Southwest 403 464 32,000  Level Washington Center
07:59PM 39.1042 -74.5056 216° Southwest 403 464 32,000  Level Washington Center
08:00PM 39.0256 -74.5817 217° Southwest 403 464 32,000  Level Washington Center
08:01PM 38.9389 -74.6631 216° Southwest 403 464 32,000  Level Washington Center
08:02PM 38.8497 -74.7467 216° Southwest 403 464 32,000  Level Washington Center
08:03PM 38.7586 -74.8275 215° Southwest 403 464 32,000  Level Washington Center
08:04PM 38.6694 -74.9108 216° Southwest 403 464 32,000  Level Washington Center
08:05PM 38.5803 -74.9914 215° Southwest 403 464 32,000  Level Washington Center
08:06PM 38.4911 -75.0744 216° Southwest 403 464 32,000  Level Washington Center
08:07PM 38.3975 -75.1414 209° Southwest 403 464 32,000  Level Washington Center
08:08PM 38.3081 -75.2214 215° Southwest 393 452 32,000  Level Washington Center
08:09PM 38.2186 -75.3064 217° Southwest 399 459 32,000  Level Washington Center
08:10PM 38.1269 -75.3833 213° Southwest 404 465 32,000  Level Washington Center
08:11PM 38.0311 -75.4572 211° Southwest 404 465 32,000  Level Washington Center
08:12PM 37.9394 -75.5339 213° Southwest 404 465 32,000  Level Washington Center
08:13PM 37.8458 -75.6103 213° Southwest 404 465 32,000  Level Washington Center
08:14PM 37.7561 -75.6836 213° Southwest 399 459 32,000  Level Washington Center
08:15PM 37.6642 -75.7597 213° Southwest 399 459 32,000  Level Washington Center
08:16PM 37.5703 -75.8356 213° Southwest 399 459 32,000  Level Washington Center
08:17PM 37.4783 -75.9111 213° Southwest 394 453 32,000  Level Washington Center
08:18PM 37.3861 -75.9864 213° Southwest 394 453 32,000  Level Washington Center
08:19PM 37.2900 -76.0617 212° Southwest 394 453 32,000  Level Washington Center
08:20PM 37.1936 -76.1419 214° Southwest 400 460 32,000  Level Washington Center
08:21PM 37.0828 -76.2244 211° Southwest 410 472 32,000  Level Washington Center
08:22PM 36.9864 -76.3017 213° Southwest 415 478 32,000  Level Washington Center
08:23PM 36.8878 -76.3761 211° Southwest 415 478 32,000  Level Washington Center
08:24PM 36.7831 -76.4347 204° Southwest 415 478 32,000  Level Washington Center
08:25PM 36.6908 -76.4908 206° Southwest 415 478 32,000  Level Washington Center
08:26PM 36.5842 -76.5464 203° Southwest 415 478 32,000 -180 Level Washington Center
08:27PM 36.4689 -76.6069 203° Southwest 418 481 31,700 -780 Descending Washington Center
08:28PM 36.3661 -76.6675 205° Southwest 418 481 30,500 -1,320 Descending Washington Center
08:29PM 36.2756 -76.7539 218° Southwest 418 481 29,100 -1,320 Descending Washington Center
08:30PM 36.1869 -76.8428 219° Southwest 418 481 27,900 -600 Descending Washington Center
08:31PM 36.1028 -76.9236 218° Southwest 407 468 28,000  Climbing Washington Center
08:32PM 36.0183 -77.0094 219° Southwest 396 456 28,000  Level Washington Center
08:33PM 35.9317 -77.0928 218° Southwest 396 456 28,000  Level Washington Center
08:34PM 35.8597 -77.1681 220° Southwest 396 456 28,000  Level Washington Center
08:35PM 35.7731 -77.2508 218° Southwest 389 448 28,000  Level Washington Center
08:36PM 35.6886 -77.3336 219° Southwest 395 455 28,000  Level Washington Center
08:37PM 35.6039 -77.4161 218° Southwest 395 455 28,000  Level Washington Center
08:38PM 35.5192 -77.4983 218° Southwest 400 460 28,000 -360 Level Washington Center
08:39PM 35.4344 -77.5778 217° Southwest 400 460 27,400 -1,020 Descending Washington Center
08:40PM 35.3494 -77.6597 218° Southwest 400 460 26,000 -1,440 Descending Washington Center
08:41PM 35.2689 -77.7392 219° Southwest 390 449 24,600 -1,320 Descending Washington Center
08:42PM 35.1881 -77.8158 218° Southwest 383 441 23,400 -1,260 Descending Washington Center
08:43PM 35.1117 -77.8897 218° Southwest 373 429 22,100 -720 Descending Washington Center
08:44PM 35.0350 -77.9639 218° Southwest 363 418 22,000 -60 Descending Washington Center
08:45PM 34.9586 -78.0325 216° Southwest 356 410 22,000  Level Washington Center
08:46PM 34.8819 -78.1061 218° Southwest 356 410 22,000  Level Washington Center
08:47PM 34.8072 -78.1847 221° Southwest 356 410 22,000  Level Washington Center
08:48PM 34.7306 -78.2581 218° Southwest 356 410 22,000  Level Washington Center
08:49PM 34.6967 -78.3681 249° West 342 394 22,000  Level Washington Center
08:50PM 34.6978 -78.4944 271° West 333 383 22,000  Level Washington Center
08:51PM 34.6992 -78.6083 271° West 362 417 22,000 -300 Level Washington Center
08:52PM 34.6961 -78.7344 268° West 367 422 21,500 -900 Descending Washington Center
08:53PM 34.6986 -78.8658 271° West 372 428 20,200 -1,080 Descending Washington Center
08:55PM 34.7008 -79.0769 271° West 351 404 18,500 -1,020 Descending Jacksonville Center
08:56PM 34.7000 -79.1906 270° West 346 398 17,500 -960 Descending Jacksonville Center
08:57PM 34.6992 -79.3094 270° West 346 398 16,600 -900 Descending Jacksonville Center
08:58PM 34.7006 -79.4256 271° West 346 398 15,700 -900 Descending Jacksonville Center
08:59PM 34.6992 -79.5367 269° West 346 398 14,800 -900 Descending Jacksonville Center
09:00PM 34.7019 -79.6425 272° West 336 387 13,900 -900 Descending Jacksonville Center
09:01PM 34.7006 -79.7461 269° West 324 373 13,100 -900 Descending Jacksonville Center
09:02PM 34.7033 -79.8572 272° West 324 373 12,200 -720 Descending Jacksonville Center
09:04PM 34.7028 -80.0744 270° West 311 358 11,000 -420 Descending Atlanta Center
09:05PM 34.7439 -80.1889 294° West 317 365 11,000  Level Atlanta Center
09:06PM 34.7783 -80.2833 294° West 316 364 11,000  Level Atlanta Center
09:07PM 34.8167 -80.3856 295° West 323 372 11,000 -300 Level Atlanta Center
09:08PM 34.8531 -80.4800 295° West 314 361 10,500 -540 Descending Atlanta Center
09:09PM 34.8869 -80.5697 295° West 313 360 10,000 -300 Descending Atlanta Center
09:10PM 34.9475 -80.6508 312° West 312 359 10,000  Level Atlanta Center
09:11PM 35.0058 -80.7219 315° West 309 356 10,000  Level Atlanta Center
09:12PM 35.0642 -80.7933 315° West 313 360 10,000 -420 Level Atlanta Center
09:13PM 35.1544 -80.8178 348° North 292 336 9,200 -1,260 Descending Atlanta Center
09:14PM 35.2358 -80.8222 357° North 290 334 7,400 -1,800 Descending Atlanta Center
09:15PM 35.3072 -80.8319 354° North 281 323 5,800 -1,800 Descending Atlanta Center
09:16PM 35.3894 -80.8672 341° North 265 305 3,700 -1,320 Descending Atlanta Center
09:17PM 35.3639 -80.9292 243° Southwest 204 235 3,000 -600 Descending Atlanta Center
09:18PM 35.3183 -80.9486 199° South 163 188 2,500 -600 Descending Atlanta Center
09:19PM 35.2850 -80.9447 175° South 115 132 1,900 -720 Descending Atlanta Center
09:20PM 35.2494 -80.9411 175° South 123 142 1,200 -720 Descending Atlanta Center